RKSI

Incheon International Airport

Seoul, South Korea
METAR RKSI 210100Z 17009KT 150V210 9999 BKN030 01/M04 Q1022 NOSIG
Observed Flight Rules
Jan-21 @ 01:00 UTC (24 minutes ago) Marginal Visual Flight Rules
Wind Visibility Clouds
170° at 9 knots 10,000+ meters
  • Broken at 3,000' AGL
Temperatures Readings
Current 1°C / 34°F
Dewpoint -4°C / 25°F
Humidity 70%
Altimeter 30.18" Hg
Pressure 1021.92 hPa
Elevation 7
METAR RKSI 210100Z 17009KT 150V210 9999 BKN030 01/M04 Q1022 NOSIG
Observed Flight Rules
Jan-21 @ 01:00 UTC
(24 minutes ago)
MVFR
Wind Visibility
170° at 9 knots 10,000+ meters
Clouds
  • Broken at 3,000' AGL
Temperature Dewpoint
1°C / 34°F -4°C / 25°F
Humidity Altimeter Pressure
70% 30.18" Hg 1021.92 hPa